Αρχική σελίδα
METAR-TAF:

METAR-TAF

Αεροδρόμια :

Αμμάν, Ιορδανία

γεωγραφικό πλάτος: 31-59N, γεωγραφικό μήκος: 035-59E, υψόμετρο: 767 μ

Παρών καιρός

Η αναφορά έγινε 8 λεπτά πριν, στις 00:00 UTC
Άνεμος 3 kt από Β
Θερμοκρασία 21°C
Υγρασία 46%
Πίεση 1012 hPa
Ορατότητα 10 χλμ και άνω
Δεν υπάρχουν νέφη με βάση κάτω από τα 1500 μ. και δεν υπάρχουν νέφη σωρειτομελανίτες.

METAR: OJAM 170000Z 36003KT CAVOK 21/09 Q1012 NOSIG

Χρόνος: 03:08 (00:08 UTC)

Πρόγνωση Καιρού

Η αναφορά έγινε 1 ώρα και 8 λεπτά πριν, στις 23:00 UTC
Η πρόγνωση ισχύει από τις 17 στις 00 UTC έως τις 18 στις 06 UTC
Άνεμος 6 kt από Δ
Ορατότητα: 5000 μ
καταχνιά
Προσωρινά
από 17 στις 10 UTC έως τις 17 στις 15 UTC
Άνεμος 14 kt από Δ/BΔ
Ορατότητα: 4000 μ

TAF: OJAM 162300Z 1700/1806 28006KT 5000 HZ NSC TEMPO 1710/1715 29014KT 4000

Μετεωρολογικές αναφορές και προγνώσεις για περισσότερα από 4000 αεροδρόμια (δελτία METAR και TAF).

Οι διαθέσιμοι σταθμοί απεικονίζονται στο χάρτη με κίτρινες και κόκκινες κουκκίδες.

Μετακινήστε το ποντίκι πάνω από τις κουκκίδες για να δείτε το όνομα του σταθμού.

Στη συνέχεια, κάντε κλικ για να δείτε τις μετεωρολογικές αναφορές και τις προγνώσεις καιρού.

Για να αλλάξετε το χάρτη: κάντε κλικ στα πράσινα κουμπιά με τον μαύρο σταυρό για να ζουμάρετε, στο πράσινο κουμπί με την παύλα για να αφαιρέσετε το ζουμ ή στα πράσινα βέλη για να αντιπαραβάλλετε χάρτες.


METAR-TAF: